Terminal Aerodrome Forecast
Issued by NWS

Home | Current Version | Previous Version | Text Only | Print | Product List | Glossary On
Versions: 1 2 3 4 5 6 7 8 9 10 11 12 13 14
066
FTUS46 KPDT 211739
TAFYKM
TAF
KYKM 211739Z 2118/2218 VRB05KT 6SM -RA BR OVC035
     FM220200 21005KT P6SM -SHRA BKN050 OVC080
     FM221200 VRB04KT 3SM -RA BR OVC015=

USA.gov is the U.S. government's official web portal to all federal, state and local government web resources and services.